sensor_id;sensor_type;location;lat;lon;timestamp;temperature;humidity
573;DHT22;271;51.114;13.780;2023-02-28T00:00:32;0.60;1.00
573;DHT22;271;51.114;13.780;2023-02-28T00:03:21;0.50;1.00
573;DHT22;271;51.114;13.780;2023-02-28T00:06:09;0.50;1.00
573;DHT22;271;51.114;13.780;2023-02-28T00:08:57;0.50;1.00
573;DHT22;271;51.114;13.780;2023-02-28T00:11:44;0.50;1.00
573;DHT22;271;51.114;13.780;2023-02-28T00:14:32;0.60;1.00
573;DHT22;271;51.114;13.780;2023-02-28T00:17:20;0.50;1.00
573;DHT22;271;51.114;13.780;2023-02-28T00:20:11;0.50;1.00
573;DHT22;271;51.114;13.780;2023-02-28T00:22:59;0.40;1.00
573;DHT22;271;51.114;13.780;2023-02-28T00:25:46;0.30;1.00
573;DHT22;271;51.114;13.780;2023-02-28T00:28:34;0.30;1.00
573;DHT22;271;51.114;13.780;2023-02-28T00:31:22;0.20;1.00
573;DHT22;271;51.114;13.780;2023-02-28T00:34:09;0.20;1.00
573;DHT22;271;51.114;13.780;2023-02-28T00:36:58;0.10;1.00
573;DHT22;271;51.114;13.780;2023-02-28T00:39:46;0.10;1.00
573;DHT22;271;51.114;13.780;2023-02-28T00:42:34;0.10;1.00
573;DHT22;271;51.114;13.780;2023-02-28T00:45:22;0.10;1.00
573;DHT22;271;51.114;13.780;2023-02-28T00:48:10;0.00;1.00
573;DHT22;271;51.114;13.780;2023-02-28T00:50:57;0.10;1.00
573;DHT22;271;51.114;13.780;2023-02-28T00:53:46;0.10;1.00
573;DHT22;271;51.114;13.780;2023-02-28T00:56:34;0.00;1.00
573;DHT22;271;51.114;13.780;2023-02-28T00:59:22;0.00;1.00
573;DHT22;271;51.114;13.780;2023-02-28T01:02:09;0.00;1.00
573;DHT22;271;51.114;13.780;2023-02-28T01:04:57;0.00;1.00
573;DHT22;271;51.114;13.780;2023-02-28T01:07:45;-0.10;1.00
573;DHT22;271;51.114;13.780;2023-02-28T01:10:34;-0.10;1.00
573;DHT22;271;51.114;13.780;2023-02-28T01:13:23;-0.10;1.00
573;DHT22;271;51.114;13.780;2023-02-28T01:16:12;-0.10;1.00
573;DHT22;271;51.114;13.780;2023-02-28T01:18:59;-0.10;1.00
573;DHT22;271;51.114;13.780;2023-02-28T01:21:47;-0.10;1.00
573;DHT22;271;51.114;13.780;2023-02-28T01:24:35;-0.10;1.00
573;DHT22;271;51.114;13.780;2023-02-28T01:27:24;-0.20;1.00
573;DHT22;271;51.114;13.780;2023-02-28T01:30:13;-0.30;1.00
573;DHT22;271;51.114;13.780;2023-02-28T01:33:00;-0.40;1.00
573;DHT22;271;51.114;13.780;2023-02-28T01:35:48;-0.40;1.00
573;DHT22;271;51.114;13.780;2023-02-28T01:38:36;-0.40;1.00
573;DHT22;271;51.114;13.780;2023-02-28T01:41:26;-0.40;1.00
573;DHT22;271;51.114;13.780;2023-02-28T01:47:41;-0.40;1.00
573;DHT22;271;51.114;13.780;2023-02-28T01:50:32;-0.50;1.00
573;DHT22;271;51.114;13.780;2023-02-28T01:53:24;-0.60;1.00
573;DHT22;271;51.114;13.780;2023-02-28T01:56:16;-0.50;1.00
573;DHT22;271;51.114;13.780;2023-02-28T01:59:06;-0.60;1.00
573;DHT22;271;51.114;13.780;2023-02-28T02:01:54;-0.50;1.00
573;DHT22;271;51.114;13.780;2023-02-28T02:04:51;-0.70;1.00
573;DHT22;271;51.114;13.780;2023-02-28T02:07:43;-0.60;1.00
573;DHT22;271;51.114;13.780;2023-02-28T02:10:34;-0.60;1.00
573;DHT22;271;51.114;13.780;2023-02-28T02:13:37;-0.60;1.00
573;DHT22;271;51.114;13.780;2023-02-28T02:16:38;-0.70;1.00
573;DHT22;271;51.114;13.780;2023-02-28T02:23:23;-0.80;1.00
573;DHT22;271;51.114;13.780;2023-02-28T02:26:34;-0.70;1.00
573;DHT22;271;51.114;13.780;2023-02-28T02:29:54;-0.80;1.00
573;DHT22;271;51.114;13.780;2023-02-28T02:33:06;-0.80;1.00
573;DHT22;271;51.114;13.780;2023-02-28T02:36:03;-0.80;1.00
573;DHT22;271;51.114;13.780;2023-02-28T02:38:54;-0.80;1.00
573;DHT22;271;51.114;13.780;2023-02-28T02:41:47;-0.90;1.00
573;DHT22;271;51.114;13.780;2023-02-28T02:44:40;-1.00;1.00
573;DHT22;271;51.114;13.780;2023-02-28T02:47:31;-1.00;1.00
573;DHT22;271;51.114;13.780;2023-02-28T02:50:24;-1.00;1.00
573;DHT22;271;51.114;13.780;2023-02-28T02:53:17;-1.00;1.00
573;DHT22;271;51.114;13.780;2023-02-28T02:56:07;-1.00;1.00
573;DHT22;271;51.114;13.780;2023-02-28T02:58:59;-1.00;1.00
573;DHT22;271;51.114;13.780;2023-02-28T03:01:50;-1.10;1.00
573;DHT22;271;51.114;13.780;2023-02-28T03:04:42;-1.20;1.00
573;DHT22;271;51.114;13.780;2023-02-28T03:07:31;-1.20;1.00
573;DHT22;271;51.114;13.780;2023-02-28T03:10:32;-1.10;1.00
573;DHT22;271;51.114;13.780;2023-02-28T03:13:39;-1.20;1.00
573;DHT22;271;51.114;13.780;2023-02-28T03:16:34;-1.40;1.00
573;DHT22;271;51.114;13.780;2023-02-28T03:19:37;-1.40;1.00
573;DHT22;271;51.114;13.780;2023-02-28T03:22:44;-1.30;1.00
573;DHT22;271;51.114;13.780;2023-02-28T03:25:44;-1.40;1.00
573;DHT22;271;51.114;13.780;2023-02-28T03:28:41;-1.50;1.00
573;DHT22;271;51.114;13.780;2023-02-28T03:31:35;-1.50;1.00
573;DHT22;271;51.114;13.780;2023-02-28T03:34:28;-1.50;1.00
573;DHT22;271;51.114;13.780;2023-02-28T03:37:20;-1.60;1.00
573;DHT22;271;51.114;13.780;2023-02-28T03:40:13;-1.70;1.00
573;DHT22;271;51.114;13.780;2023-02-28T03:43:07;-1.70;1.00
573;DHT22;271;51.114;13.780;2023-02-28T03:45:58;-1.70;1.00
573;DHT22;271;51.114;13.780;2023-02-28T03:48:52;-1.80;1.00
573;DHT22;271;51.114;13.780;2023-02-28T03:51:43;-1.80;1.00
573;DHT22;271;51.114;13.780;2023-02-28T03:54:34;-1.90;1.00
573;DHT22;271;51.114;13.780;2023-02-28T03:57:27;-1.80;1.00
573;DHT22;271;51.114;13.780;2023-02-28T04:00:27;-1.90;1.00
573;DHT22;271;51.114;13.780;2023-02-28T04:03:15;-2.00;1.00
573;DHT22;271;51.114;13.780;2023-02-28T04:06:04;-1.90;1.00
573;DHT22;271;51.114;13.780;2023-02-28T04:08:53;-1.90;1.00
573;DHT22;271;51.114;13.780;2023-02-28T04:11:42;-1.90;1.00
573;DHT22;271;51.114;13.780;2023-02-28T04:14:31;-1.90;1.00
573;DHT22;271;51.114;13.780;2023-02-28T04:17:20;-1.90;1.00
573;DHT22;271;51.114;13.780;2023-02-28T04:20:09;-2.00;1.00
573;DHT22;271;51.114;13.780;2023-02-28T04:22:57;-2.00;1.00
573;DHT22;271;51.114;13.780;2023-02-28T04:25:45;-2.10;1.00
573;DHT22;271;51.114;13.780;2023-02-28T04:28:33;-2.10;1.00
573;DHT22;271;51.114;13.780;2023-02-28T04:31:21;-2.10;1.00
573;DHT22;271;51.114;13.780;2023-02-28T04:34:10;-2.10;1.00
573;DHT22;271;51.114;13.780;2023-02-28T04:36:58;-2.10;1.00
573;DHT22;271;51.114;13.780;2023-02-28T04:39:46;-2.00;1.00
573;DHT22;271;51.114;13.780;2023-02-28T04:42:34;-2.00;1.00
573;DHT22;271;51.114;13.780;2023-02-28T04:45:22;-2.00;1.00
573;DHT22;271;51.114;13.780;2023-02-28T04:48:10;-2.20;1.00
573;DHT22;271;51.114;13.780;2023-02-28T04:51:01;-2.20;1.00
573;DHT22;271;51.114;13.780;2023-02-28T04:53:49;-2.30;1.00
573;DHT22;271;51.114;13.780;2023-02-28T04:56:37;-2.30;1.00
573;DHT22;271;51.114;13.780;2023-02-28T04:59:24;-2.40;1.00
573;DHT22;271;51.114;13.780;2023-02-28T05:02:12;-2.40;1.00
573;DHT22;271;51.114;13.780;2023-02-28T05:05:00;-2.40;1.00
573;DHT22;271;51.114;13.780;2023-02-28T05:07:49;-2.50;1.00
573;DHT22;271;51.114;13.780;2023-02-28T05:10:36;-2.60;1.00
573;DHT22;271;51.114;13.780;2023-02-28T05:13:24;-2.60;1.00
573;DHT22;271;51.114;13.780;2023-02-28T05:16:12;-2.60;1.00
573;DHT22;271;51.114;13.780;2023-02-28T05:18:59;-2.50;1.00
573;DHT22;271;51.114;13.780;2023-02-28T05:21:52;-2.60;1.00
573;DHT22;271;51.114;13.780;2023-02-28T05:24:41;-2.60;1.00
573;DHT22;271;51.114;13.780;2023-02-28T05:27:29;-2.70;1.00
573;DHT22;271;51.114;13.780;2023-02-28T05:30:17;-2.70;1.00
573;DHT22;271;51.114;13.780;2023-02-28T05:33:05;-2.80;1.00
573;DHT22;271;51.114;13.780;2023-02-28T05:35:53;-2.80;1.00
573;DHT22;271;51.114;13.780;2023-02-28T05:38:40;-2.80;1.00
573;DHT22;271;51.114;13.780;2023-02-28T05:41:29;-2.90;1.00
573;DHT22;271;51.114;13.780;2023-02-28T05:44:17;-2.80;1.00
573;DHT22;271;51.114;13.780;2023-02-28T05:47:05;-2.80;1.00
573;DHT22;271;51.114;13.780;2023-02-28T05:49:52;-2.90;1.00
573;DHT22;271;51.114;13.780;2023-02-28T05:52:40;-2.90;1.00
573;DHT22;271;51.114;13.780;2023-02-28T05:55:28;-2.90;1.00
573;DHT22;271;51.114;13.780;2023-02-28T05:58:17;-2.80;1.00
573;DHT22;271;51.114;13.780;2023-02-28T06:01:21;-2.90;1.00
573;DHT22;271;51.114;13.780;2023-02-28T06:04:10;-3.00;1.00
573;DHT22;271;51.114;13.780;2023-02-28T06:07:00;-3.10;1.00
573;DHT22;271;51.114;13.780;2023-02-28T06:09:47;-3.10;1.00
573;DHT22;271;51.114;13.780;2023-02-28T06:12:36;-3.00;1.00
573;DHT22;271;51.114;13.780;2023-02-28T06:15:25;-3.00;1.00
573;DHT22;271;51.114;13.780;2023-02-28T06:18:13;-3.00;1.00
573;DHT22;271;51.114;13.780;2023-02-28T06:21:00;-3.10;1.00
573;DHT22;271;51.114;13.780;2023-02-28T06:23:48;-3.10;1.00
573;DHT22;271;51.114;13.780;2023-02-28T06:26:37;-3.00;1.00
573;DHT22;271;51.114;13.780;2023-02-28T06:29:24;-3.00;1.00
573;DHT22;271;51.114;13.780;2023-02-28T06:32:14;-2.90;1.00
573;DHT22;271;51.114;13.780;2023-02-28T06:35:02;-2.90;1.00
573;DHT22;271;51.114;13.780;2023-02-28T06:37:49;-2.90;1.00
573;DHT22;271;51.114;13.780;2023-02-28T06:40:37;-2.80;1.00
573;DHT22;271;51.114;13.780;2023-02-28T06:43:27;-2.80;1.00
573;DHT22;271;51.114;13.780;2023-02-28T06:46:15;-2.80;1.00
573;DHT22;271;51.114;13.780;2023-02-28T06:49:04;-2.90;1.00
573;DHT22;271;51.114;13.780;2023-02-28T06:51:54;-2.90;1.00
573;DHT22;271;51.114;13.780;2023-02-28T06:54:42;-2.80;1.00
573;DHT22;271;51.114;13.780;2023-02-28T06:57:31;-2.70;1.00
573;DHT22;271;51.114;13.780;2023-02-28T07:00:20;-2.60;1.00
573;DHT22;271;51.114;13.780;2023-02-28T07:03:08;-2.50;1.00
573;DHT22;271;51.114;13.780;2023-02-28T07:05:57;-2.40;1.00
573;DHT22;271;51.114;13.780;2023-02-28T07:08:45;-2.30;1.00
573;DHT22;271;51.114;13.780;2023-02-28T07:11:33;-2.20;1.00
573;DHT22;271;51.114;13.780;2023-02-28T07:14:20;-2.00;1.00
573;DHT22;271;51.114;13.780;2023-02-28T07:17:08;-1.70;1.00
573;DHT22;271;51.114;13.780;2023-02-28T07:19:58;-1.50;1.00
573;DHT22;271;51.114;13.780;2023-02-28T07:22:47;-1.40;1.00
573;DHT22;271;51.114;13.780;2023-02-28T07:25:41;-1.30;1.00
573;DHT22;271;51.114;13.780;2023-02-28T07:28:29;-1.20;1.00
573;DHT22;271;51.114;13.780;2023-02-28T07:31:17;-1.10;1.00
573;DHT22;271;51.114;13.780;2023-02-28T07:34:05;-0.80;1.00
573;DHT22;271;51.114;13.780;2023-02-28T07:36:53;-0.60;1.00
573;DHT22;271;51.114;13.780;2023-02-28T07:39:42;-0.40;1.00
573;DHT22;271;51.114;13.780;2023-02-28T07:42:30;-0.40;1.00
573;DHT22;271;51.114;13.780;2023-02-28T07:45:18;-0.20;1.00
573;DHT22;271;51.114;13.780;2023-02-28T07:48:06;-0.10;1.00
573;DHT22;271;51.114;13.780;2023-02-28T07:50:56;0.00;1.00
573;DHT22;271;51.114;13.780;2023-02-28T07:53:44;0.20;1.00
573;DHT22;271;51.114;13.780;2023-02-28T07:56:33;0.30;1.00
573;DHT22;271;51.114;13.780;2023-02-28T07:59:21;0.50;1.00
573;DHT22;271;51.114;13.780;2023-02-28T08:02:12;0.70;1.00
573;DHT22;271;51.114;13.780;2023-02-28T08:05:00;0.80;1.00
573;DHT22;271;51.114;13.780;2023-02-28T08:07:49;0.80;1.00
573;DHT22;271;51.114;13.780;2023-02-28T08:10:37;0.80;1.00
573;DHT22;271;51.114;13.780;2023-02-28T08:13:26;1.00;1.00
573;DHT22;271;51.114;13.780;2023-02-28T08:16:14;1.10;1.00
573;DHT22;271;51.114;13.780;2023-02-28T08:19:07;1.10;1.00
573;DHT22;271;51.114;13.780;2023-02-28T08:21:55;1.20;1.00
573;DHT22;271;51.114;13.780;2023-02-28T08:24:43;1.20;1.00
573;DHT22;271;51.114;13.780;2023-02-28T08:27:31;1.20;1.00
573;DHT22;271;51.114;13.780;2023-02-28T08:30:20;1.30;1.00
573;DHT22;271;51.114;13.780;2023-02-28T08:33:08;1.30;1.00
573;DHT22;271;51.114;13.780;2023-02-28T08:35:56;1.30;1.00
573;DHT22;271;51.114;13.780;2023-02-28T08:38:44;1.30;1.00
573;DHT22;271;51.114;13.780;2023-02-28T08:41:32;1.40;1.00
573;DHT22;271;51.114;13.780;2023-02-28T08:44:20;1.50;1.00
573;DHT22;271;51.114;13.780;2023-02-28T08:47:09;1.60;1.00
573;DHT22;271;51.114;13.780;2023-02-28T08:49:57;1.50;1.00
573;DHT22;271;51.114;13.780;2023-02-28T08:52:44;1.50;1.00
573;DHT22;271;51.114;13.780;2023-02-28T08:55:32;1.50;1.00
573;DHT22;271;51.114;13.780;2023-02-28T08:58:20;1.60;1.00
573;DHT22;271;51.114;13.780;2023-02-28T09:01:09;1.70;1.00
573;DHT22;271;51.114;13.780;2023-02-28T09:03:58;1.80;1.00
573;DHT22;271;51.114;13.780;2023-02-28T09:06:47;2.00;1.00
573;DHT22;271;51.114;13.780;2023-02-28T09:09:35;2.10;1.00
573;DHT22;271;51.114;13.780;2023-02-28T09:12:24;2.10;1.00
573;DHT22;271;51.114;13.780;2023-02-28T09:15:12;2.10;1.00
573;DHT22;271;51.114;13.780;2023-02-28T09:18:00;2.30;1.00
573;DHT22;271;51.114;13.780;2023-02-28T09:20:49;2.60;1.00
573;DHT22;271;51.114;13.780;2023-02-28T09:23:36;2.90;1.00
573;DHT22;271;51.114;13.780;2023-02-28T09:26:26;3.00;1.00
573;DHT22;271;51.114;13.780;2023-02-28T09:29:14;3.20;1.00
573;DHT22;271;51.114;13.780;2023-02-28T09:32:04;3.30;1.00
573;DHT22;271;51.114;13.780;2023-02-28T09:34:52;3.30;1.00
573;DHT22;271;51.114;13.780;2023-02-28T09:37:41;3.30;1.00
573;DHT22;271;51.114;13.780;2023-02-28T09:40:29;3.60;1.00
573;DHT22;271;51.114;13.780;2023-02-28T09:43:19;3.80;1.00
573;DHT22;271;51.114;13.780;2023-02-28T09:46:14;3.90;1.00
573;DHT22;271;51.114;13.780;2023-02-28T09:49:08;4.20;1.00
573;DHT22;271;51.114;13.780;2023-02-28T09:52:00;4.50;1.00
573;DHT22;271;51.114;13.780;2023-02-28T09:54:50;5.00;1.00
573;DHT22;271;51.114;13.780;2023-02-28T09:57:40;5.50;1.00
573;DHT22;271;51.114;13.780;2023-02-28T10:00:32;6.00;1.00
573;DHT22;271;51.114;13.780;2023-02-28T10:03:26;6.40;1.00
573;DHT22;271;51.114;13.780;2023-02-28T10:06:19;6.30;1.00
573;DHT22;271;51.114;13.780;2023-02-28T10:09:11;6.50;1.00
573;DHT22;271;51.114;13.780;2023-02-28T10:12:04;6.40;1.00
573;DHT22;271;51.114;13.780;2023-02-28T10:14:54;6.60;1.00
573;DHT22;271;51.114;13.780;2023-02-28T10:17:45;6.80;1.00
573;DHT22;271;51.114;13.780;2023-02-28T10:20:38;6.90;1.00
573;DHT22;271;51.114;13.780;2023-02-28T10:23:28;6.90;1.00
573;DHT22;271;51.114;13.780;2023-02-28T10:26:19;6.50;1.00
573;DHT22;271;51.114;13.780;2023-02-28T10:29:09;6.40;1.00
573;DHT22;271;51.114;13.780;2023-02-28T10:31:59;6.80;1.00
573;DHT22;271;51.114;13.780;2023-02-28T10:34:51;6.30;1.00
573;DHT22;271;51.114;13.780;2023-02-28T10:37:40;5.80;1.00
573;DHT22;271;51.114;13.780;2023-02-28T10:40:32;5.80;1.00
573;DHT22;271;51.114;13.780;2023-02-28T10:43:22;5.50;1.00
573;DHT22;271;51.114;13.780;2023-02-28T10:46:15;5.00;1.00
573;DHT22;271;51.114;13.780;2023-02-28T10:49:17;4.70;1.00
573;DHT22;271;51.114;13.780;2023-02-28T10:52:09;4.50;1.00
573;DHT22;271;51.114;13.780;2023-02-28T10:55:14;4.30;1.00
573;DHT22;271;51.114;13.780;2023-02-28T10:58:02;4.00;1.00
573;DHT22;271;51.114;13.780;2023-02-28T11:00:55;3.70;1.00
573;DHT22;271;51.114;13.780;2023-02-28T11:03:44;3.60;1.00
573;DHT22;271;51.114;13.780;2023-02-28T11:06:33;3.50;1.00
573;DHT22;271;51.114;13.780;2023-02-28T11:09:24;3.40;1.00
573;DHT22;271;51.114;13.780;2023-02-28T11:12:23;3.20;1.00
573;DHT22;271;51.114;13.780;2023-02-28T11:15:22;3.30;1.00
573;DHT22;271;51.114;13.780;2023-02-28T11:18:21;3.40;1.00
573;DHT22;271;51.114;13.780;2023-02-28T11:21:21;3.30;1.00
573;DHT22;271;51.114;13.780;2023-02-28T11:24:19;3.30;1.00
573;DHT22;271;51.114;13.780;2023-02-28T11:27:26;3.40;1.00
573;DHT22;271;51.114;13.780;2023-02-28T11:30:25;3.70;1.00
573;DHT22;271;51.114;13.780;2023-02-28T11:33:22;4.10;1.00
573;DHT22;271;51.114;13.780;2023-02-28T11:36:14;4.60;1.00
573;DHT22;271;51.114;13.780;2023-02-28T11:39:10;4.40;1.00
573;DHT22;271;51.114;13.780;2023-02-28T11:42:31;4.10;1.00
573;DHT22;271;51.114;13.780;2023-02-28T11:45:36;4.00;1.00
573;DHT22;271;51.114;13.780;2023-02-28T11:48:34;4.20;1.00
573;DHT22;271;51.114;13.780;2023-02-28T11:51:32;4.60;1.00
573;DHT22;271;51.114;13.780;2023-02-28T11:54:40;4.80;1.00
573;DHT22;271;51.114;13.780;2023-02-28T11:57:49;4.90;1.00
573;DHT22;271;51.114;13.780;2023-02-28T12:00:49;5.10;1.00
573;DHT22;271;51.114;13.780;2023-02-28T12:03:46;5.10;1.00
573;DHT22;271;51.114;13.780;2023-02-28T12:06:40;4.60;1.00
573;DHT22;271;51.114;13.780;2023-02-28T12:09:41;4.60;1.00
573;DHT22;271;51.114;13.780;2023-02-28T12:12:43;4.70;1.00
573;DHT22;271;51.114;13.780;2023-02-28T12:15:57;4.60;1.00
573;DHT22;271;51.114;13.780;2023-02-28T12:18:57;4.20;1.00
573;DHT22;271;51.114;13.780;2023-02-28T12:22:04;4.30;1.00
573;DHT22;271;51.114;13.780;2023-02-28T12:25:24;4.30;1.00
573;DHT22;271;51.114;13.780;2023-02-28T12:28:26;4.20;1.00
573;DHT22;271;51.114;13.780;2023-02-28T12:31:19;4.40;1.00
573;DHT22;271;51.114;13.780;2023-02-28T12:34:14;4.80;1.00
573;DHT22;271;51.114;13.780;2023-02-28T12:37:09;4.70;1.00
573;DHT22;271;51.114;13.780;2023-02-28T12:40:02;4.30;1.00
573;DHT22;271;51.114;13.780;2023-02-28T12:42:54;4.80;1.00
573;DHT22;271;51.114;13.780;2023-02-28T12:45:46;5.30;1.00
573;DHT22;271;51.114;13.780;2023-02-28T12:48:40;5.00;1.00
573;DHT22;271;51.114;13.780;2023-02-28T12:51:29;5.00;1.00
573;DHT22;271;51.114;13.780;2023-02-28T12:54:24;5.00;1.00
573;DHT22;271;51.114;13.780;2023-02-28T12:57:15;5.20;1.00
573;DHT22;271;51.114;13.780;2023-02-28T13:00:11;5.30;1.00
573;DHT22;271;51.114;13.780;2023-02-28T13:03:22;5.60;1.00
573;DHT22;271;51.114;13.780;2023-02-28T13:06:41;5.30;1.00
573;DHT22;271;51.114;13.780;2023-02-28T13:09:32;5.30;1.00
573;DHT22;271;51.114;13.780;2023-02-28T13:12:20;5.00;1.00
573;DHT22;271;51.114;13.780;2023-02-28T13:15:18;4.80;1.00
573;DHT22;271;51.114;13.780;2023-02-28T13:18:29;4.60;1.00
573;DHT22;271;51.114;13.780;2023-02-28T13:21:24;4.50;1.00
573;DHT22;271;51.114;13.780;2023-02-28T13:24:40;4.50;1.00
573;DHT22;271;51.114;13.780;2023-02-28T13:27:36;4.40;1.00
573;DHT22;271;51.114;13.780;2023-02-28T13:31:02;4.40;1.00
573;DHT22;271;51.114;13.780;2023-02-28T13:34:13;4.40;1.00
573;DHT22;271;51.114;13.780;2023-02-28T13:37:35;4.90;1.00
573;DHT22;271;51.114;13.780;2023-02-28T13:40:32;5.30;1.00
573;DHT22;271;51.114;13.780;2023-02-28T13:44:02;5.20;1.00
573;DHT22;271;51.114;13.780;2023-02-28T13:47:20;5.30;1.00
573;DHT22;271;51.114;13.780;2023-02-28T13:50:19;5.50;1.00
573;DHT22;271;51.114;13.780;2023-02-28T13:53:37;5.10;1.00
573;DHT22;271;51.114;13.780;2023-02-28T13:56:36;4.90;1.00
573;DHT22;271;51.114;13.780;2023-02-28T13:59:34;5.00;1.00
573;DHT22;271;51.114;13.780;2023-02-28T14:02:40;4.90;1.00
573;DHT22;271;51.114;13.780;2023-02-28T14:05:33;5.30;1.00
573;DHT22;271;51.114;13.780;2023-02-28T14:08:22;5.30;1.00
573;DHT22;271;51.114;13.780;2023-02-28T14:11:24;5.40;1.00
573;DHT22;271;51.114;13.780;2023-02-28T14:17:37;5.40;1.00
573;DHT22;271;51.114;13.780;2023-02-28T14:20:26;4.90;1.00
573;DHT22;271;51.114;13.780;2023-02-28T14:23:25;4.80;1.00
573;DHT22;271;51.114;13.780;2023-02-28T14:26:32;4.60;1.00
573;DHT22;271;51.114;13.780;2023-02-28T14:29:41;4.40;1.00
573;DHT22;271;51.114;13.780;2023-02-28T14:32:33;4.30;1.00
573;DHT22;271;51.114;13.780;2023-02-28T14:35:39;4.00;1.00
573;DHT22;271;51.114;13.780;2023-02-28T14:38:30;4.00;1.00
573;DHT22;271;51.114;13.780;2023-02-28T14:41:22;3.90;1.00
573;DHT22;271;51.114;13.780;2023-02-28T14:44:16;4.00;1.00
573;DHT22;271;51.114;13.780;2023-02-28T14:47:11;3.70;1.00
573;DHT22;271;51.114;13.780;2023-02-28T14:50:02;3.60;1.00
573;DHT22;271;51.114;13.780;2023-02-28T14:52:53;3.50;1.00
573;DHT22;271;51.114;13.780;2023-02-28T14:55:45;3.50;1.00
573;DHT22;271;51.114;13.780;2023-02-28T14:58:34;3.50;1.00
573;DHT22;271;51.114;13.780;2023-02-28T15:01:23;3.40;1.00
573;DHT22;271;51.114;13.780;2023-02-28T15:04:25;3.40;1.00
573;DHT22;271;51.114;13.780;2023-02-28T15:07:15;3.40;1.00
573;DHT22;271;51.114;13.780;2023-02-28T15:10:16;3.40;1.00
573;DHT22;271;51.114;13.780;2023-02-28T15:13:06;3.40;1.00
573;DHT22;271;51.114;13.780;2023-02-28T15:15:56;3.40;1.00
573;DHT22;271;51.114;13.780;2023-02-28T15:18:48;3.40;1.00
573;DHT22;271;51.114;13.780;2023-02-28T15:21:39;3.40;1.00
573;DHT22;271;51.114;13.780;2023-02-28T15:24:37;3.30;1.00
573;DHT22;271;51.114;13.780;2023-02-28T15:27:32;3.30;1.00
573;DHT22;271;51.114;13.780;2023-02-28T15:30:21;3.20;1.00
573;DHT22;271;51.114;13.780;2023-02-28T15:33:20;3.10;1.00
573;DHT22;271;51.114;13.780;2023-02-28T15:36:14;3.00;1.00
573;DHT22;271;51.114;13.780;2023-02-28T15:39:16;3.00;1.00
573;DHT22;271;51.114;13.780;2023-02-28T15:42:12;3.10;1.00
573;DHT22;271;51.114;13.780;2023-02-28T15:45:01;3.10;1.00
573;DHT22;271;51.114;13.780;2023-02-28T15:47:50;3.10;1.00
573;DHT22;271;51.114;13.780;2023-02-28T15:50:38;3.00;1.00
573;DHT22;271;51.114;13.780;2023-02-28T15:53:29;3.00;1.00
573;DHT22;271;51.114;13.780;2023-02-28T15:56:23;2.90;1.00
573;DHT22;271;51.114;13.780;2023-02-28T15:59:16;2.90;1.00
573;DHT22;271;51.114;13.780;2023-02-28T16:02:17;2.90;1.00
573;DHT22;271;51.114;13.780;2023-02-28T16:05:23;2.90;1.00
573;DHT22;271;51.114;13.780;2023-02-28T16:08:14;2.90;1.00
573;DHT22;271;51.114;13.780;2023-02-28T16:11:02;2.90;1.00
573;DHT22;271;51.114;13.780;2023-02-28T16:13:50;2.80;1.00
573;DHT22;271;51.114;13.780;2023-02-28T16:16:43;2.80;1.00
573;DHT22;271;51.114;13.780;2023-02-28T16:19:32;2.80;1.00
573;DHT22;271;51.114;13.780;2023-02-28T16:22:21;2.70;1.00
573;DHT22;271;51.114;13.780;2023-02-28T16:25:12;2.60;1.00
573;DHT22;271;51.114;13.780;2023-02-28T16:28:00;2.60;1.00
573;DHT22;271;51.114;13.780;2023-02-28T16:30:48;2.50;1.00
573;DHT22;271;51.114;13.780;2023-02-28T16:33:38;2.50;1.00
573;DHT22;271;51.114;13.780;2023-02-28T16:36:28;2.40;1.00
573;DHT22;271;51.114;13.780;2023-02-28T16:39:17;2.30;1.00
573;DHT22;271;51.114;13.780;2023-02-28T16:42:10;2.20;1.00
573;DHT22;271;51.114;13.780;2023-02-28T16:45:01;2.10;1.00
573;DHT22;271;51.114;13.780;2023-02-28T16:47:49;2.00;1.00
573;DHT22;271;51.114;13.780;2023-02-28T16:50:36;2.00;1.00
573;DHT22;271;51.114;13.780;2023-02-28T16:53:26;1.90;1.00
573;DHT22;271;51.114;13.780;2023-02-28T16:56:16;1.80;1.00
573;DHT22;271;51.114;13.780;2023-02-28T16:59:04;1.60;1.00
573;DHT22;271;51.114;13.780;2023-02-28T17:01:52;1.70;1.00
573;DHT22;271;51.114;13.780;2023-02-28T17:04:40;1.40;1.00
573;DHT22;271;51.114;13.780;2023-02-28T17:07:29;1.30;1.00
573;DHT22;271;51.114;13.780;2023-02-28T17:10:20;1.20;1.00
573;DHT22;271;51.114;13.780;2023-02-28T17:13:08;1.20;1.00
573;DHT22;271;51.114;13.780;2023-02-28T17:15:56;1.10;1.00
573;DHT22;271;51.114;13.780;2023-02-28T17:18:44;1.00;1.00
573;DHT22;271;51.114;13.780;2023-02-28T17:21:32;1.00;1.00
573;DHT22;271;51.114;13.780;2023-02-28T17:24:20;0.90;1.00
573;DHT22;271;51.114;13.780;2023-02-28T17:27:11;0.80;1.00
573;DHT22;271;51.114;13.780;2023-02-28T17:30:00;0.70;1.00
573;DHT22;271;51.114;13.780;2023-02-28T17:32:49;0.70;1.00
573;DHT22;271;51.114;13.780;2023-02-28T17:35:37;0.70;1.00
573;DHT22;271;51.114;13.780;2023-02-28T17:38:24;0.60;1.00
573;DHT22;271;51.114;13.780;2023-02-28T17:41:12;0.70;1.00
573;DHT22;271;51.114;13.780;2023-02-28T17:44:01;0.60;1.00
573;DHT22;271;51.114;13.780;2023-02-28T17:46:49;0.60;1.00
573;DHT22;271;51.114;13.780;2023-02-28T17:49:37;0.60;1.00
573;DHT22;271;51.114;13.780;2023-02-28T17:52:25;0.50;1.00
573;DHT22;271;51.114;13.780;2023-02-28T17:55:13;0.40;1.00
573;DHT22;271;51.114;13.780;2023-02-28T17:58:00;0.40;1.00
573;DHT22;271;51.114;13.780;2023-02-28T18:00:50;0.40;1.00
573;DHT22;271;51.114;13.780;2023-02-28T18:03:40;0.30;1.00
573;DHT22;271;51.114;13.780;2023-02-28T18:06:32;0.20;1.00
573;DHT22;271;51.114;13.780;2023-02-28T18:09:22;0.10;1.00
573;DHT22;271;51.114;13.780;2023-02-28T18:12:10;0.10;1.00
573;DHT22;271;51.114;13.780;2023-02-28T18:14:58;0.10;1.00
573;DHT22;271;51.114;13.780;2023-02-28T18:17:47;0.00;1.00
573;DHT22;271;51.114;13.780;2023-02-28T18:20:36;-0.10;1.00
573;DHT22;271;51.114;13.780;2023-02-28T18:23:23;-0.10;1.00
573;DHT22;271;51.114;13.780;2023-02-28T18:26:11;-0.10;1.00
573;DHT22;271;51.114;13.780;2023-02-28T18:28:59;-0.10;1.00
573;DHT22;271;51.114;13.780;2023-02-28T18:31:47;-0.10;1.00
573;DHT22;271;51.114;13.780;2023-02-28T18:34:36;-0.20;1.00
573;DHT22;271;51.114;13.780;2023-02-28T18:37:24;-0.20;1.00
573;DHT22;271;51.114;13.780;2023-02-28T18:40:13;-0.30;1.00
573;DHT22;271;51.114;13.780;2023-02-28T18:43:01;-0.30;1.00
573;DHT22;271;51.114;13.780;2023-02-28T18:45:49;-0.30;1.00
573;DHT22;271;51.114;13.780;2023-02-28T18:48:37;-0.30;1.00
573;DHT22;271;51.114;13.780;2023-02-28T18:51:28;-0.30;1.00
573;DHT22;271;51.114;13.780;2023-02-28T18:54:16;-0.40;1.00
573;DHT22;271;51.114;13.780;2023-02-28T18:57:04;-0.40;1.00
573;DHT22;271;51.114;13.780;2023-02-28T18:59:54;-0.40;1.00
573;DHT22;271;51.114;13.780;2023-02-28T19:02:49;-0.30;1.00
573;DHT22;271;51.114;13.780;2023-02-28T19:05:37;-0.40;1.00
573;DHT22;271;51.114;13.780;2023-02-28T19:08:27;-0.30;1.00
573;DHT22;271;51.114;13.780;2023-02-28T19:11:17;-0.40;1.00
573;DHT22;271;51.114;13.780;2023-02-28T19:14:05;-0.50;1.00
573;DHT22;271;51.114;13.780;2023-02-28T19:16:54;-0.50;1.00
573;DHT22;271;51.114;13.780;2023-02-28T19:19:42;-0.50;1.00
573;DHT22;271;51.114;13.780;2023-02-28T19:22:30;-0.50;1.00
573;DHT22;271;51.114;13.780;2023-02-28T19:25:19;-0.60;1.00
573;DHT22;271;51.114;13.780;2023-02-28T19:28:09;-0.70;1.00
573;DHT22;271;51.114;13.780;2023-02-28T19:30:57;-0.80;1.00
573;DHT22;271;51.114;13.780;2023-02-28T19:33:44;-0.80;1.00
573;DHT22;271;51.114;13.780;2023-02-28T19:36:32;-0.80;1.00
573;DHT22;271;51.114;13.780;2023-02-28T19:39:21;-0.80;1.00
573;DHT22;271;51.114;13.780;2023-02-28T19:42:11;-0.90;1.00